Time;durP1;ratioP1;P1;durP2;ratioP2;P2;SDS_P1;SDS_P2;PMS_P1;PMS_P2;Temp;Humidity;BMP_temperature;BMP_pressure;BME280_temperature;BME280_humidity;BME280_pressure;Samples;Min_cycle;Max_cycle;Signal;HPM_P1;HPM_P2
2024/03/28 00:00:23;;;;;;;2.03;1.55;;;;;;;9.24;100.00;98413.59;10459062;28;20063;-73
2024/03/28 00:05:23;;;;;;;1.55;1.45;;;;;;;9.20;100.00;98421.38;10459314;28;20123;-72
2024/03/28 00:10:24;;;;;;;1.80;1.70;;;;;;;9.05;100.00;98421.97;10456128;28;20033;-75
2024/03/28 00:15:24;;;;;;;1.48;1.38;;;;;;;8.80;100.00;98417.03;10461022;28;20057;-74
2024/03/28 00:20:24;;;;;;;1.05;1.05;;;;;;;8.70;100.00;98399.88;10461496;28;20355;-74
2024/03/28 00:25:25;;;;;;;1.92;1.40;;;;;;;8.55;100.00;98408.53;10460647;28;20047;-74
2024/03/28 00:30:25;;;;;;;2.05;1.92;;;;;;;8.46;100.00;98389.25;10457970;28;20037;-75
2024/03/28 00:35:25;;;;;;;1.13;1.13;;;;;;;8.43;100.00;98394.34;10456005;28;20025;-74
2024/03/28 00:40:26;;;;;;;2.00;1.90;;;;;;;8.26;100.00;98380.78;10456278;28;20476;-74
2024/03/28 00:45:27;;;;;;;1.70;1.60;;;;;;;8.21;100.00;98378.84;10456359;28;20033;-73
2024/03/28 00:50:27;;;;;;;1.40;1.27;;;;;;;8.20;100.00;98369.13;10457464;28;20032;-73
2024/03/28 00:55:28;;;;;;;2.00;1.35;;;;;;;8.12;100.00;98353.34;10461761;28;20037;-74
2024/03/28 01:00:28;;;;;;;1.67;1.58;;;;;;;8.02;100.00;98337.81;10439299;28;20449;-72
2024/03/28 01:05:28;;;;;;;1.98;1.88;;;;;;;8.04;100.00;98332.16;10455711;28;20399;-75
2024/03/28 01:10:29;;;;;;;2.28;1.77;;;;;;;8.09;100.00;98334.97;10455108;28;20112;-73
2024/03/28 01:15:30;;;;;;;2.70;2.42;;;;;;;8.14;100.00;98319.69;10456361;28;20049;-76
2024/03/28 01:20:30;;;;;;;1.98;1.50;;;;;;;8.09;100.00;98314.22;10454792;28;20108;-73
2024/03/28 01:25:30;;;;;;;1.67;1.48;;;;;;;8.03;100.00;98309.81;10457481;28;20055;-74
2024/03/28 01:30:31;;;;;;;1.80;1.70;;;;;;;7.81;100.00;98300.81;10464110;28;20028;-72
2024/03/28 01:35:31;;;;;;;4.70;1.30;;;;;;;7.93;100.00;98317.72;10463929;28;20032;-74
2024/03/28 01:40:32;;;;;;;1.70;1.60;;;;;;;7.88;100.00;98301.44;10462711;28;20095;-75
2024/03/28 01:45:32;;;;;;;1.92;1.70;;;;;;;7.75;100.00;98301.78;10462342;28;20033;-74
2024/03/28 01:50:32;;;;;;;2.38;2.17;;;;;;;7.75;100.00;98285.59;10462022;28;20051;-72
2024/03/28 01:55:33;;;;;;;2.42;2.22;;;;;;;7.56;100.00;98280.47;10446257;28;20383;-74
2024/03/28 02:00:33;;;;;;;2.10;1.40;;;;;;;7.52;100.00;98267.72;10463376;28;20024;-74
2024/03/28 02:05:34;;;;;;;3.10;1.85;;;;;;;7.48;100.00;98259.31;10463798;28;20095;-72
2024/03/28 02:10:34;;;;;;;1.88;1.77;;;;;;;7.49;100.00;98258.22;10462636;28;20353;-73
2024/03/28 02:15:34;;;;;;;1.98;1.88;;;;;;;7.47;100.00;98246.91;10462962;28;20473;-71
2024/03/28 02:20:35;;;;;;;2.65;2.55;;;;;;;7.49;100.00;98234.00;10461187;28;20021;-73
2024/03/28 02:25:35;;;;;;;2.50;2.30;;;;;;;7.60;100.00;98232.31;10459066;28;20029;-75
2024/03/28 02:30:36;;;;;;;6.85;2.70;;;;;;;7.67;100.00;98233.78;10443143;28;20060;-75
2024/03/28 02:35:36;;;;;;;2.83;2.60;;;;;;;7.74;100.00;98222.84;10460982;28;20044;-74
2024/03/28 02:40:37;;;;;;;2.78;2.53;;;;;;;7.79;100.00;98214.03;10460295;28;20025;-75
2024/03/28 02:45:38;;;;;;;4.78;2.08;;;;;;;7.75;100.00;98210.19;10460127;28;20033;-74
2024/03/28 02:50:38;;;;;;;5.65;2.50;;;;;;;7.68;100.00;98199.56;10460229;28;20029;-73
2024/03/28 02:55:39;;;;;;;2.80;2.55;;;;;;;7.59;100.00;98182.19;10460060;28;20499;-72
2024/03/28 03:00:39;;;;;;;4.03;2.58;;;;;;;7.61;100.00;98172.00;10459341;28;20029;-73
2024/03/28 03:05:39;;;;;;;2.13;2.00;;;;;;;7.59;100.00;98149.88;10458697;28;20112;-73
2024/03/28 03:10:40;;;;;;;2.65;2.35;;;;;;;7.68;100.00;98143.81;10459425;28;20109;-72
2024/03/28 03:15:40;;;;;;;2.50;2.10;;;;;;;7.62;100.00;98136.72;10458548;28;20060;-75
2024/03/28 03:20:49;;;;;;;1.60;1.50;;;;;;;7.63;100.00;98129.47;10457139;28;20120;-73
2024/03/28 03:25:59;;;;;;;2.83;2.63;;;;;;;7.63;100.00;98121.41;10458608;28;20353;-75
2024/03/28 03:36:18;;;;;;;2.42;2.10;;;;;;;7.71;100.00;98136.31;10457617;28;20029;-72
2024/03/28 03:41:19;;;;;;;3.45;1.60;;;;;;;7.57;100.00;98131.28;10456807;28;20028;-74
2024/03/28 03:46:20;;;;;;;13.25;2.42;;;;;;;7.32;100.00;98128.19;10458330;28;20403;-73
2024/03/28 03:51:20;;;;;;;6.88;2.08;;;;;;;7.38;100.00;98127.19;10457952;28;20029;-74
2024/03/28 03:56:20;;;;;;;3.25;2.95;;;;;;;7.37;100.00;98139.84;10458341;28;20102;-72
2024/03/28 04:01:21;;;;;;;2.22;2.13;;;;;;;7.46;100.00;98113.31;10456680;28;20056;-75
2024/03/28 04:06:21;;;;;;;6.25;3.35;;;;;;;7.39;100.00;98097.34;10458484;28;20037;-73
2024/03/28 04:11:22;;;;;;;2.80;2.53;;;;;;;7.39;100.00;98101.91;10457825;28;20368;-73
2024/03/28 04:16:22;;;;;;;3.08;2.45;;;;;;;7.42;100.00;98093.34;10456530;28;20045;-73
2024/03/28 04:21:23;;;;;;;2.08;1.95;;;;;;;7.38;100.00;98089.50;10456953;28;20043;-73
2024/03/28 04:26:23;;;;;;;3.30;3.00;;;;;;;7.36;100.00;98089.75;10456718;28;20483;-75
2024/03/28 04:31:24;;;;;;;3.38;2.60;;;;;;;7.37;100.00;98085.16;10455554;28;20036;-72
2024/03/28 04:36:24;;;;;;;2.15;2.03;;;;;;;7.44;100.00;98086.66;10456860;28;20071;-74
2024/03/28 04:41:24;;;;;;;3.33;3.03;;;;;;;7.46;100.00;98086.38;10456056;28;20036;-74
2024/03/28 04:46:25;;;;;;;3.13;2.03;;;;;;;7.51;100.00;98075.72;10454546;28;20364;-73
2024/03/28 04:51:26;;;;;;;2.13;1.92;;;;;;;7.51;100.00;98056.06;10455967;28;20040;-72
2024/03/28 04:56:26;;;;;;;5.63;2.70;;;;;;;7.51;100.00;98053.34;10471290;28;20036;-73
2024/03/28 05:01:27;;;;;;;2.47;2.33;;;;;;;7.64;100.00;98066.47;10457449;28;20032;-73
2024/03/28 05:06:28;;;;;;;2.42;2.20;;;;;;;7.65;100.00;98060.81;10461834;28;20499;-73
2024/03/28 05:11:28;;;;;;;3.50;2.35;;;;;;;7.77;100.00;98049.94;10463418;28;20032;-74
2024/03/28 05:16:29;;;;;;;1.85;1.75;;;;;;;7.79;100.00;98090.13;10464931;28;20068;-76
2024/03/28 05:21:29;;;;;;;2.42;2.30;;;;;;;7.81;100.00;98082.59;10463059;28;20106;-75
2024/03/28 05:26:29;;;;;;;2.55;2.35;;;;;;;7.78;100.00;98083.88;10461732;28;20025;-74
2024/03/28 05:31:31;;;;;;;1.75;1.65;;;;;;;7.78;100.00;98088.47;10462069;28;20033;-74
2024/03/28 05:36:31;;;;;;;2.97;2.38;;;;;;;7.78;100.00;98091.97;10462476;28;20488;-71
2024/03/28 05:41:32;;;;;;;2.33;2.13;;;;;;;7.74;100.00;98098.13;10463274;28;20039;-75
2024/03/28 05:46:32;;;;;;;2.60;1.98;;;;;;;7.88;100.00;98096.69;10462760;28;20029;-74
2024/03/28 05:51:33;;;;;;;1.88;1.75;;;;;;;8.06;100.00;98099.09;10463307;28;20032;-74
2024/03/28 05:56:34;;;;;;;2.45;2.30;;;;;;;8.25;100.00;98098.78;10462252;28;20456;-72
2024/03/28 06:01:34;;;;;;;2.03;1.92;;;;;;;8.40;100.00;98098.19;10460777;28;20131;-75
2024/03/28 06:06:34;;;;;;;4.22;1.70;;;;;;;8.37;100.00;98086.00;10460878;28;20033;-76
2024/03/28 06:11:35;;;;;;;1.92;1.80;;;;;;;8.40;100.00;98087.41;10461546;28;20028;-74
2024/03/28 06:16:36;;;;;;;1.70;1.60;;;;;;;8.38;100.00;98082.25;10460304;28;20147;-73
2024/03/28 06:21:36;;;;;;;1.27;1.27;;;;;;;8.43;100.00;98095.81;10460723;28;20095;-72
2024/03/28 06:26:36;;;;;;;2.83;2.50;;;;;;;8.40;100.00;98082.81;10442810;28;20041;-72
2024/03/28 06:31:40;;;;;;;7.82;3.00;;;;;;;8.47;100.00;98094.22;10459187;28;20406;-72
2024/03/28 06:36:40;;;;;;;2.63;2.25;;;;;;;8.48;100.00;98093.16;10460909;28;20036;-71
2024/03/28 06:41:40;;;;;;;2.00;1.85;;;;;;;8.41;100.00;98080.94;10460550;28;20029;-72
2024/03/28 06:46:41;;;;;;;3.58;2.25;;;;;;;8.43;100.00;98084.22;10460362;28;20326;-73
2024/03/28 06:51:41;;;;;;;2.33;1.98;;;;;;;8.48;100.00;98085.06;10460158;28;20057;-73
2024/03/28 06:56:42;;;;;;;3.30;2.42;;;;;;;8.35;100.00;98097.00;10474595;28;20037;-73
2024/03/28 07:01:42;;;;;;;3.25;2.47;;;;;;;8.43;100.00;98100.38;10457963;28;20441;-72
2024/03/28 07:06:43;;;;;;;1.77;1.63;;;;;;;8.20;100.00;98096.84;10458692;28;20032;-71
2024/03/28 07:11:45;;;;;;;2.50;1.95;;;;;;;8.00;100.00;98104.66;10459272;28;20064;-71
2024/03/28 07:16:46;;;;;;;1.33;1.23;;;;;;;7.71;100.00;98117.47;10459383;28;20053;-70
2024/03/28 07:21:46;;;;;;;1.25;1.15;;;;;;;7.56;100.00;98104.56;10458155;28;20075;-72
2024/03/28 07:26:47;;;;;;;1.85;1.70;;;;;;;7.28;100.00;98133.25;10457171;28;20033;-74
2024/03/28 07:31:47;;;;;;;4.80;1.20;;;;;;;7.26;100.00;98129.16;10456073;28;20061;-71
2024/03/28 07:36:48;;;;;;;1.88;1.77;;;;;;;7.23;100.00;98123.19;10457208;28;20048;-72
2024/03/28 07:41:48;;;;;;;1.50;1.40;;;;;;;7.34;100.00;98136.81;10457616;28;20037;-70
2024/03/28 07:46:48;;;;;;;0.90;0.90;;;;;;;7.30;100.00;98141.88;10456661;28;20045;-71
2024/03/28 07:51:49;;;;;;;0.50;0.50;;;;;;;7.23;100.00;98131.25;10457282;28;20029;-71
2024/03/28 07:56:49;;;;;;;0.57;0.57;;;;;;;7.23;100.00;98133.94;10458036;28;20032;-75
2024/03/28 08:01:49;;;;;;;0.40;0.40;;;;;;;7.22;100.00;98134.22;10460975;28;20361;-74
2024/03/28 08:06:50;;;;;;;0.60;0.60;;;;;;;7.22;100.00;98135.03;10459151;28;20037;-74
2024/03/28 08:11:50;;;;;;;0.50;0.50;;;;;;;7.13;100.00;98139.16;10456836;28;20116;-72
2024/03/28 08:16:51;;;;;;;0.45;0.45;;;;;;;7.01;100.00;98133.03;10456455;28;20358;-72
2024/03/28 08:21:51;;;;;;;0.63;0.63;;;;;;;6.97;100.00;98137.28;10459954;28;20033;-72
2024/03/28 08:26:52;;;;;;;0.50;0.50;;;;;;;6.93;100.00;98149.59;10459853;28;20131;-74
2024/03/28 08:31:52;;;;;;;1.77;1.77;;;;;;;7.00;100.00;98152.94;10461345;28;20104;-74
2024/03/28 08:36:53;;;;;;;0.60;0.60;;;;;;;7.02;100.00;98153.53;10460895;28;20029;-73
2024/03/28 08:41:53;;;;;;;0.35;0.35;;;;;;;7.14;100.00;98156.94;10465542;28;20037;-74
2024/03/28 08:46:54;;;;;;;0.47;0.47;;;;;;;7.25;100.00;98165.22;10463681;28;20468;-73
2024/03/28 08:51:54;;;;;;;0.50;0.50;;;;;;;7.34;100.00;98180.72;10457136;28;20029;-74
2024/03/28 08:56:55;;;;;;;0.40;0.40;;;;;;;7.36;100.00;98177.78;10457329;28;20091;-73
2024/03/28 09:01:55;;;;;;;0.50;0.50;;;;;;;7.41;100.00;98186.75;10457235;28;20040;-73
2024/03/28 09:06:56;;;;;;;0.40;0.40;;;;;;;7.53;100.00;98185.84;10457049;28;20076;-75
2024/03/28 09:11:59;;;;;;;1.40;1.40;;;;;;;7.65;100.00;98190.09;10459605;28;20063;-74
2024/03/28 09:17:00;;;;;;;0.60;0.60;;;;;;;7.74;100.00;98200.47;10455668;28;20540;-72
2024/03/28 09:22:01;;;;;;;0.70;0.70;;;;;;;7.83;100.00;98209.78;10438886;28;20021;-74
2024/03/28 09:27:01;;;;;;;0.50;0.50;;;;;;;7.85;100.00;98226.53;10454083;28;20039;-75
2024/03/28 09:32:02;;;;;;;0.50;0.50;;;;;;;7.98;100.00;98231.59;10455656;28;20052;-75
2024/03/28 09:37:03;;;;;;;0.50;0.50;;;;;;;7.97;100.00;98245.28;10437001;28;20124;-73
2024/03/28 09:42:06;;;;;;;0.50;0.50;;;;;;;8.29;100.00;98249.00;10454959;28;20520;-75
2024/03/28 09:47:07;;;;;;;0.50;0.50;;;;;;;8.43;100.00;98257.59;10456683;28;20056;-74
2024/03/28 09:52:07;;;;;;;0.50;0.50;;;;;;;8.73;100.00;98245.59;10444105;28;20032;-74
2024/03/28 09:57:08;;;;;;;0.50;0.50;;;;;;;9.66;100.00;98261.72;10461576;28;20060;-73
2024/03/28 10:02:17;;;;;;;1.30;1.25;;;;;;;10.57;100.00;98285.16;10477312;28;20029;-72
2024/03/28 10:07:18;;;;;;;0.40;0.40;;;;;;;10.70;100.00;98287.41;10462378;28;20029;-74
2024/03/28 10:12:18;;;;;;;0.60;0.60;;;;;;;11.46;100.00;98292.31;10460135;28;20178;-73
2024/03/28 10:17:19;;;;;;;0.40;0.40;;;;;;;11.87;100.00;98295.16;10461063;28;20060;-71
2024/03/28 10:22:19;;;;;;;0.43;0.43;;;;;;;11.52;100.00;98306.69;10461192;28;20399;-72
2024/03/28 10:27:20;;;;;;;3.63;1.50;;;;;;;11.07;100.00;98318.97;10460487;28;20040;-72
2024/03/28 10:32:21;;;;;;;0.40;0.40;;;;;;;10.15;100.00;98334.63;10458905;28;20103;-71
2024/03/28 10:37:27;;;;;;;0.40;0.40;;;;;;;10.02;100.00;98354.78;10442200;28;20025;-72
2024/03/28 10:42:29;;;;;;;0.60;0.60;;;;;;;10.09;100.00;98370.78;10442571;28;20330;-71
2024/03/28 10:47:29;;;;;;;0.55;0.55;;;;;;;10.45;100.00;98369.22;10458606;28;20040;-72
2024/03/28 10:52:39;;;;;;;0.40;0.40;;;;;;;11.15;100.00;98375.38;10458337;28;20064;-71
2024/03/28 10:57:41;;;;;;;0.40;0.40;;;;;;;11.71;100.00;98383.75;10458719;28;20143;-72
2024/03/28 11:02:43;;;;;;;0.40;0.40;;;;;;;12.68;100.00;98388.50;10474477;28;20063;-71
2024/03/28 11:07:43;;;;;;;0.50;0.50;;;;;;;13.75;100.00;98393.63;10457789;28;20035;-70
2024/03/28 11:12:43;;;;;;;0.55;0.55;;;;;;;14.36;100.00;98397.91;10459179;28;20053;-72
2024/03/28 11:17:45;;;;;;;3.15;1.80;;;;;;;13.68;100.00;98414.88;10458162;28;20124;-71
2024/03/28 11:22:45;;;;;;;5.00;2.17;;;;;;;13.79;100.00;98424.66;10456794;28;20048;-71
2024/03/28 11:27:46;;;;;;;1.48;1.35;;;;;;;13.94;100.00;98430.03;10456892;28;20116;-71
2024/03/28 11:32:46;;;;;;;1.25;1.15;;;;;;;14.18;100.00;98435.59;10458162;28;20033;-71
2024/03/28 11:37:47;;;;;;;7.82;2.03;;;;;;;14.27;100.00;98443.16;10456695;28;20124;-72
2024/03/28 11:42:48;;;;;;;3.95;1.65;;;;;;;14.02;100.00;98442.22;10458488;28;20134;-72
2024/03/28 11:47:48;;;;;;;7.85;3.55;;;;;;;13.85;100.00;98463.53;10457259;28;20082;-72
2024/03/28 11:52:48;;;;;;;5.07;1.35;;;;;;;13.85;100.00;98466.25;10455591;28;20032;-72
2024/03/28 11:57:49;;;;;;;4.68;1.33;;;;;;;13.11;100.00;98478.63;10456614;28;20472;-71
2024/03/28 12:02:56;;;;;;;1.60;1.50;;;;;;;12.93;100.00;98488.16;10456102;28;20035;-72
2024/03/28 12:07:57;;;;;;;1.35;1.25;;;;;;;13.17;100.00;98485.69;10456375;28;20025;-71
2024/03/28 12:13:01;;;;;;;1.40;1.40;;;;;;;13.43;100.00;98490.03;10455733;28;20448;-71
2024/03/28 12:18:01;;;;;;;2.08;1.88;;;;;;;14.23;100.00;98483.75;10454382;28;20044;-72
2024/03/28 12:23:05;;;;;;;2.75;1.27;;;;;;;13.12;100.00;98483.78;10456689;28;20036;-72
2024/03/28 12:28:05;;;;;;;1.63;1.52;;;;;;;12.59;100.00;98499.53;10455249;28;20104;-73
2024/03/28 12:33:06;;;;;;;1.27;1.10;;;;;;;14.02;100.00;98496.63;10454950;28;20376;-73
2024/03/28 12:38:07;;;;;;;3.75;2.08;;;;;;;14.61;100.00;98506.69;10455149;28;20033;-73
2024/03/28 12:43:12;;;;;;;2.15;1.48;;;;;;;14.78;100.00;98495.41;10438200;28;20374;-73
2024/03/28 12:48:14;;;;;;;1.35;1.20;;;;;;;14.87;100.00;98511.97;10453757;28;20175;-71
2024/03/28 12:53:15;;;;;;;1.23;1.23;;;;;;;15.65;96.95;98515.63;10456567;28;20128;-72
2024/03/28 12:58:16;;;;;;;1.35;1.20;;;;;;;15.32;100.00;98509.94;10455774;28;20040;-72
2024/03/28 13:03:16;;;;;;;1.25;1.17;;;;;;;16.05;100.00;98511.66;10455501;28;20032;-72
2024/03/28 13:08:17;;;;;;;2.50;1.25;;;;;;;14.58;100.00;98536.38;10456167;28;20033;-73
2024/03/28 13:13:17;;;;;;;1.48;1.30;;;;;;;13.51;100.00;98534.88;10456797;28;20190;-73
2024/03/28 13:18:18;;;;;;;1.35;1.27;;;;;;;13.80;100.00;98540.50;10455359;28;20049;-72
2024/03/28 13:23:18;;;;;;;1.40;1.02;;;;;;;14.63;100.00;98533.63;10460296;28;20067;-71
2024/03/28 13:28:18;;;;;;;1.02;1.02;;;;;;;15.48;100.00;98541.44;10463136;28;20123;-73
2024/03/28 13:33:19;;;;;;;1.50;1.40;;;;;;;14.28;100.00;98557.22;10463748;28;20025;-71
2024/03/28 13:38:19;;;;;;;1.33;0.98;;;;;;;13.46;100.00;98565.63;10463855;28;20124;-72
2024/03/28 13:43:20;;;;;;;0.98;0.98;;;;;;;13.06;100.00;98579.97;10478569;28;20056;-74
2024/03/28 13:48:21;;;;;;;10.60;1.33;;;;;;;12.57;100.00;98583.97;10462419;28;20032;-72
2024/03/28 13:53:21;;;;;;;3.47;1.30;;;;;;;12.41;100.00;98581.47;10462697;28;20040;-73
2024/03/28 13:58:21;;;;;;;2.17;0.95;;;;;;;12.80;100.00;98581.84;10462226;28;20025;-72
2024/03/28 14:03:22;;;;;;;2.58;1.48;;;;;;;12.98;100.00;98583.22;10462561;28;20204;-72
2024/03/28 14:08:22;;;;;;;0.65;0.65;;;;;;;12.61;100.00;98595.13;10461811;28;20142;-73
2024/03/28 14:13:23;;;;;;;3.45;1.52;;;;;;;12.82;100.00;98579.66;10460854;28;20481;-72
2024/03/28 14:18:23;;;;;;;1.35;1.25;;;;;;;13.60;100.00;98579.44;10443960;28;20060;-73
2024/03/28 14:23:23;;;;;;;4.47;1.23;;;;;;;12.86;100.00;98607.94;10459894;28;20380;-72
2024/03/28 14:28:24;;;;;;;1.10;0.95;;;;;;;12.26;100.00;98603.94;10459346;28;20056;-72
2024/03/28 14:33:24;;;;;;;1.42;1.10;;;;;;;12.24;100.00;98601.47;10462075;28;20418;-74
2024/03/28 14:38:25;;;;;;;3.17;1.35;;;;;;;12.33;100.00;98599.88;10459550;28;20086;-73
2024/03/28 14:43:25;;;;;;;2.47;1.58;;;;;;;12.29;100.00;98592.56;10461201;28;20036;-72
2024/03/28 14:48:26;;;;;;;1.58;1.27;;;;;;;12.62;100.00;98598.63;10461393;28;20025;-72
2024/03/28 14:53:27;;;;;;;1.65;1.25;;;;;;;12.19;100.00;98598.75;10476351;28;20403;-72
2024/03/28 14:58:27;;;;;;;2.30;1.25;;;;;;;11.90;100.00;98617.31;10475441;28;20121;-73
2024/03/28 15:03:28;;;;;;;3.63;2.00;;;;;;;11.23;100.00;98642.25;10458575;28;20029;-73
2024/03/28 15:08:28;;;;;;;2.10;1.42;;;;;;;9.60;100.00;98649.94;10459706;28;20025;-75
2024/03/28 15:13:28;;;;;;;6.03;1.90;;;;;;;9.23;100.00;98653.13;10458757;28;20045;-75
2024/03/28 15:18:29;;;;;;;1.20;1.17;;;;;;;9.39;100.00;98640.69;10460340;28;20368;-76
2024/03/28 15:23:30;;;;;;;1.30;1.20;;;;;;;9.42;100.00;98639.41;10460603;28;20032;-74
2024/03/28 15:28:30;;;;;;;9.40;1.73;;;;;;;9.77;100.00;98628.31;10459632;28;20051;-74
2024/03/28 15:33:30;;;;;;;5.03;1.60;;;;;;;9.58;100.00;98625.06;10458048;28;20392;-75
2024/03/28 15:38:31;;;;;;;3.88;2.25;;;;;;;9.85;100.00;98613.56;10458036;28;20061;-73
2024/03/28 15:43:32;;;;;;;2.10;1.38;;;;;;;9.96;100.00;98618.03;10455157;28;20044;-72
2024/03/28 15:48:32;;;;;;;4.47;1.45;;;;;;;10.54;100.00;98607.72;10457572;28;20032;-75
2024/03/28 15:53:34;;;;;;;1.48;1.38;;;;;;;10.91;100.00;98594.28;10458487;28;20373;-75
2024/03/28 15:58:35;;;;;;;2.85;1.30;;;;;;;10.86;100.00;98581.50;10457867;28;20037;-74
2024/03/28 16:03:35;;;;;;;1.63;1.52;;;;;;;10.96;100.00;98577.28;10457759;28;20039;-74
2024/03/28 16:08:36;;;;;;;2.67;1.77;;;;;;;10.93;100.00;98582.13;10455617;28;20472;-74
2024/03/28 16:13:36;;;;;;;1.95;1.77;;;;;;;10.96;100.00;98579.97;10456984;28;20071;-74
2024/03/28 16:18:37;;;;;;;7.22;1.63;;;;;;;11.01;100.00;98566.47;10456810;28;20475;-72
2024/03/28 16:23:38;;;;;;;3.42;1.75;;;;;;;10.85;100.00;98536.56;10455805;28;20040;-72
2024/03/28 16:28:38;;;;;;;3.55;1.20;;;;;;;10.98;100.00;98561.59;10454178;28;20025;-72
2024/03/28 16:33:39;;;;;;;6.47;1.50;;;;;;;11.05;100.00;98567.59;10455700;28;20040;-72
2024/03/28 16:38:40;;;;;;;2.40;2.15;;;;;;;11.09;100.00;98560.59;10455361;28;20396;-74
2024/03/28 16:43:40;;;;;;;4.82;2.60;;;;;;;11.45;100.00;98558.97;10455667;28;20074;-73
2024/03/28 16:48:41;;;;;;;1.45;1.35;;;;;;;11.66;100.00;98561.81;10454448;28;20032;-74
2024/03/28 16:53:41;;;;;;;2.25;1.48;;;;;;;11.71;100.00;98565.38;10455786;28;20364;-72
2024/03/28 16:58:42;;;;;;;6.78;1.58;;;;;;;11.48;100.00;98560.34;10454471;28;20064;-72
2024/03/28 17:03:42;;;;;;;1.83;1.73;;;;;;;11.43;100.00;98554.91;10454099;28;20083;-74
2024/03/28 17:08:43;;;;;;;4.13;1.85;;;;;;;11.50;100.00;98577.97;10471564;28;20098;-71
2024/03/28 17:13:43;;;;;;;1.85;1.75;;;;;;;11.33;100.00;98559.16;10454860;28;20445;-71
2024/03/28 17:18:44;;;;;;;9.07;1.55;;;;;;;11.33;100.00;98559.16;10453989;28;20124;-72
2024/03/28 17:23:44;;;;;;;6.63;2.15;;;;;;;11.41;100.00;98582.25;10454449;28;20112;-73
2024/03/28 17:28:44;;;;;;;5.15;2.35;;;;;;;11.37;100.00;98591.97;10454708;28;20033;-72
2024/03/28 17:33:45;;;;;;;2.88;1.52;;;;;;;11.33;100.00;98580.84;10452801;28;20033;-71
2024/03/28 17:38:46;;;;;;;2.72;1.58;;;;;;;11.10;100.00;98581.19;10454145;28;20072;-72
2024/03/28 17:43:48;;;;;;;1.08;0.93;;;;;;;10.98;100.00;98594.09;10452790;28;20357;-72
2024/03/28 17:48:49;;;;;;;1.55;1.08;;;;;;;10.82;100.00;98582.28;10453725;28;20061;-71
2024/03/28 17:53:49;;;;;;;1.45;1.35;;;;;;;10.72;100.00;98593.84;10454887;28;20029;-73
2024/03/28 17:58:52;;;;;;;3.08;1.27;;;;;;;10.61;100.00;98579.38;10455389;28;20028;-74
2024/03/28 18:03:52;;;;;;;1.15;1.02;;;;;;;10.56;100.00;98587.44;10436753;28;20040;-71
2024/03/28 18:08:53;;;;;;;1.35;1.25;;;;;;;10.35;100.00;98602.63;10457427;28;20449;-73
2024/03/28 18:13:56;;;;;;;3.38;1.67;;;;;;;10.32;100.00;98602.31;10460568;28;20170;-71
2024/03/28 18:18:56;;;;;;;4.90;1.33;;;;;;;10.26;100.00;98598.72;10462261;28;20060;-71
2024/03/28 18:23:57;;;;;;;5.82;2.08;;;;;;;10.26;100.00;98609.53;10461166;28;20025;-73
2024/03/28 18:28:57;;;;;;;5.13;2.28;;;;;;;10.14;100.00;98616.91;10461529;28;20453;-71
2024/03/28 18:33:58;;;;;;;3.85;2.05;;;;;;;10.13;100.00;98632.31;10459864;28;20100;-73
2024/03/28 18:38:58;;;;;;;3.30;1.25;;;;;;;10.12;100.00;98636.13;10459163;28;20029;-72
2024/03/28 18:44:01;;;;;;;2.45;0.95;;;;;;;10.04;100.00;98655.47;10459169;28;20039;-72
2024/03/28 18:49:01;;;;;;;1.20;1.17;;;;;;;10.03;100.00;98656.53;10460750;28;20029;-71
2024/03/28 18:54:02;;;;;;;6.90;1.75;;;;;;;10.06;100.00;98674.16;10459548;28;20080;-73
2024/03/28 18:59:02;;;;;;;1.00;1.00;;;;;;;10.11;100.00;98685.03;10458196;28;20491;-72
2024/03/28 19:04:03;;;;;;;4.28;2.25;;;;;;;10.15;100.00;98683.47;10458948;28;20353;-73
2024/03/28 19:09:03;;;;;;;0.88;0.88;;;;;;;10.33;100.00;98696.72;10459315;28;20044;-74
2024/03/28 19:14:04;;;;;;;11.45;1.63;;;;;;;10.48;100.00;98694.22;10458663;28;20064;-73
2024/03/28 19:19:05;;;;;;;1.17;1.08;;;;;;;10.56;100.00;98703.81;10457548;28;20032;-72
2024/03/28 19:24:06;;;;;;;4.20;1.75;;;;;;;10.66;100.00;98697.72;10457192;28;20480;-73
2024/03/28 19:29:06;;;;;;;4.03;1.95;;;;;;;10.61;100.00;98703.84;10457655;28;20448;-74
2024/03/28 19:34:06;;;;;;;1.55;1.45;;;;;;;10.76;100.00;98705.94;10457584;28;20090;-73
2024/03/28 19:39:07;;;;;;;3.08;1.48;;;;;;;10.61;100.00;98654.34;10458139;28;20036;-75
2024/03/28 19:44:07;;;;;;;9.85;1.60;;;;;;;10.51;100.00;98690.22;10463767;28;20044;-77
2024/03/28 19:49:08;;;;;;;7.38;1.52;;;;;;;10.36;100.00;98687.28;10459693;28;20060;-75
2024/03/28 19:54:08;;;;;;;4.72;1.50;;;;;;;10.21;100.00;98702.22;10472858;28;20086;-75
2024/03/28 19:59:09;;;;;;;4.00;1.25;;;;;;;10.11;100.00;98715.59;10457890;28;20437;-75
2024/03/28 20:04:10;;;;;;;12.48;1.70;;;;;;;10.24;100.00;98727.94;10457503;28;20035;-75
2024/03/28 20:09:10;;;;;;;5.50;1.23;;;;;;;10.37;100.00;98743.03;10457014;28;20028;-75
2024/03/28 20:14:14;;;;;;;4.50;2.05;;;;;;;10.42;100.00;98718.75;10456156;28;20045;-74
2024/03/28 20:19:14;;;;;;;2.25;1.27;;;;;;;10.51;100.00;98738.09;10457224;28;20021;-73
2024/03/28 20:24:15;;;;;;;2.08;1.88;;;;;;;10.48;100.00;98729.41;10457266;28;20114;-76
2024/03/28 20:29:15;;;;;;;1.85;1.75;;;;;;;10.52;100.00;98731.63;10464521;28;20060;-74
2024/03/28 20:34:16;;;;;;;7.40;1.48;;;;;;;10.23;100.00;98754.19;10438391;28;20116;-73
2024/03/28 20:39:20;;;;;;;2.22;1.83;;;;;;;9.99;100.00;98729.22;10456595;28;20029;-74
2024/03/28 20:44:20;;;;;;;3.78;1.80;;;;;;;9.90;100.00;98746.09;10455441;28;20082;-77
2024/03/28 20:49:21;;;;;;;3.20;2.33;;;;;;;9.87;100.00;98752.81;10456110;28;20021;-73
2024/03/28 20:54:21;;;;;;;3.17;1.77;;;;;;;9.80;100.00;98757.56;10477125;28;20476;-71
2024/03/28 20:59:22;;;;;;;2.47;2.15;;;;;;;9.85;100.00;98762.22;10455512;28;20028;-73
2024/03/28 21:04:28;;;;;;;3.50;2.13;;;;;;;9.96;100.00;98754.03;10455111;28;20421;-72
2024/03/28 21:14:50;;;;;;;2.33;1.65;;;;;;;9.95;100.00;98765.09;10440598;28;20464;-74
2024/03/28 21:19:50;;;;;;;5.45;1.95;;;;;;;9.82;100.00;98743.78;10454149;28;20037;-73
2024/03/28 21:24:51;;;;;;;3.17;1.90;;;;;;;9.82;100.00;98760.00;10453837;28;20326;-73
2024/03/28 21:29:54;;;;;;;8.88;2.70;;;;;;;9.62;100.00;98747.78;10456634;28;20029;-74
2024/03/28 21:34:59;;;;;;;7.03;1.83;;;;;;;9.58;100.00;98762.88;10454465;28;20150;-71
2024/03/28 21:39:59;;;;;;;2.35;1.77;;;;;;;9.60;100.00;98746.41;10452668;28;20510;-72
2024/03/28 21:45:00;;;;;;;3.05;1.63;;;;;;;9.50;100.00;98736.22;10459877;28;20154;-70
2024/03/28 21:50:00;;;;;;;7.25;3.38;;;;;;;9.57;100.00;98769.31;10461893;28;20084;-72
2024/03/28 21:55:01;;;;;;;1.88;1.73;;;;;;;9.52;100.00;98755.72;10461095;28;20025;-73
2024/03/28 22:00:01;;;;;;;1.80;1.70;;;;;;;9.46;100.00;98757.50;10462710;28;20036;-71
2024/03/28 22:05:02;;;;;;;7.43;2.08;;;;;;;9.40;100.00;98752.25;10461723;28;20037;-70
2024/03/28 22:10:04;;;;;;;2.95;1.65;;;;;;;9.47;100.00;98763.72;10461909;28;20033;-74
2024/03/28 22:15:04;;;;;;;5.07;2.40;;;;;;;9.40;100.00;98763.88;10462144;28;20052;-74
2024/03/28 22:20:05;;;;;;;6.50;1.83;;;;;;;9.25;100.00;98761.75;10459659;28;20058;-72
2024/03/28 22:25:06;;;;;;;8.68;2.42;;;;;;;9.31;100.00;98765.34;10460235;28;20090;-73
2024/03/28 22:30:08;;;;;;;4.50;2.10;;;;;;;9.31;100.00;98785.06;10461639;28;20120;-73
2024/03/28 22:35:08;;;;;;;2.30;1.67;;;;;;;9.25;100.00;98769.00;10459213;28;20025;-73
2024/03/28 22:40:09;;;;;;;3.97;1.95;;;;;;;9.25;100.00;98777.09;10460938;28;20029;-72
2024/03/28 22:45:10;;;;;;;6.45;1.98;;;;;;;9.20;100.00;98790.53;10459451;28;20024;-73
2024/03/28 22:50:10;;;;;;;3.67;2.10;;;;;;;9.17;100.00;98785.59;10460010;28;20040;-71
2024/03/28 22:55:11;;;;;;;2.20;1.55;;;;;;;9.18;100.00;98804.25;10458636;28;20029;-71
2024/03/28 23:00:13;;;;;;;7.47;3.00;;;;;;;9.21;100.00;98800.25;10458280;28;20108;-73
2024/03/28 23:05:14;;;;;;;4.63;2.20;;;;;;;9.14;100.00;98794.19;10459250;28;20120;-75
2024/03/28 23:10:14;;;;;;;2.72;1.92;;;;;;;9.17;100.00;98801.81;10460733;28;20084;-74
2024/03/28 23:15:15;;;;;;;3.20;1.70;;;;;;;9.08;100.00;98807.56;10459794;28;20049;-72
2024/03/28 23:20:15;;;;;;;4.63;1.83;;;;;;;9.10;100.00;98806.53;10458033;28;20411;-71